Time;durP1;ratioP1;P1;durP2;ratioP2;P2;SDS_P1;SDS_P2;PMS_P1;PMS_P2;Temp;Humidity;BMP_temperature;BMP_pressure;BME280_temperature;BME280_humidity;BME280_pressure;Samples;Min_cycle;Max_cycle;Signal;HPM_P1;HPM_P2
2021/12/14 00:00:56;;;;;;;;;79.00;61.50;;;;;3.92;92.10;100317.03;4969179;28;9018;-77
2021/12/14 00:03:28;;;;;;;;;72.75;60.00;;;;;4.02;92.88;100318.25;4969443;28;8859;-76
2021/12/14 00:05:57;;;;;;;;;75.50;61.00;;;;;4.06;92.82;100317.53;4936950;28;8887;-75
2021/12/14 00:08:35;;;;;;;;;82.75;60.25;;;;;4.07;92.79;100320.19;4952962;28;8913;-76
2021/12/14 00:11:28;;;;;;;;;71.50;58.50;;;;;4.03;91.51;100318.31;4904737;28;8905;-75
2021/12/14 00:14:12;;;;;;;;;77.50;61.00;;;;;4.11;92.76;100308.28;4936852;28;8863;-76
2021/12/14 00:16:42;;;;;;;;;73.25;58.00;;;;;3.65;92.26;100315.13;4968529;28;8867;-75
2021/12/14 00:19:11;;;;;;;;;73.00;57.75;;;;;3.50;92.13;100312.81;4949991;28;8961;-75
2021/12/14 00:21:43;;;;;;;;;77.00;56.75;;;;;3.70;93.16;100312.72;5049374;28;8898;-75
2021/12/14 00:24:14;;;;;;;;;71.00;53.25;;;;;3.82;93.86;100309.72;5060321;28;8865;-76
2021/12/14 00:26:48;;;;;;;;;65.50;52.25;;;;;3.82;93.13;100312.31;5065088;28;8853;-76
2021/12/14 00:29:19;;;;;;;;;62.00;50.75;;;;;3.94;93.73;100311.94;5065003;28;8868;-74
2021/12/14 00:31:48;;;;;;;;;68.25;52.25;;;;;3.97;93.08;100307.78;5064742;28;8876;-75
2021/12/14 00:34:24;;;;;;;;;66.75;55.75;;;;;4.05;92.94;100314.09;5033842;28;8848;-75
2021/12/14 00:36:53;;;;;;;;;76.00;57.50;;;;;4.04;91.86;100314.03;5015720;28;8900;-76
2021/12/14 00:39:24;;;;;;;;;71.25;55.25;;;;;4.00;92.78;100312.16;5034304;28;8890;-76
2021/12/14 00:41:52;;;;;;;;;67.50;55.00;;;;;4.01;92.75;100314.81;5047229;28;8869;-76
2021/12/14 00:44:21;;;;;;;;;63.00;53.75;;;;;4.09;93.28;100315.09;5047008;28;8835;-75
2021/12/14 00:46:51;;;;;;;;;67.75;51.75;;;;;4.10;92.29;100319.41;5030296;28;8842;-75
2021/12/14 00:49:21;;;;;;;;;57.25;48.50;;;;;4.15;92.92;100311.84;5030350;28;9016;-75
2021/12/14 00:51:50;;;;;;;;;51.50;44.00;;;;;4.18;92.74;100315.44;5063223;28;8952;-76
2021/12/14 00:54:19;;;;;;;;;56.25;46.25;;;;;4.19;92.43;100316.31;5047000;28;9007;-75
2021/12/14 00:56:51;;;;;;;;;68.00;51.25;;;;;4.24;92.84;100318.25;5008039;28;8877;-76
2021/12/14 00:59:22;;;;;;;;;66.25;49.50;;;;;4.20;92.47;100318.97;5063306;28;8849;-77
2021/12/14 01:01:55;;;;;;;;;62.00;50.75;;;;;4.19;92.13;100316.31;5046462;28;8846;-77
2021/12/14 01:04:28;;;;;;;;;60.25;51.00;;;;;4.21;92.49;100328.44;5047183;28;9633;-77
2021/12/14 01:06:58;;;;;;;;;64.75;50.50;;;;;4.19;92.30;100321.47;5048721;28;8846;-78
2021/12/14 01:09:31;;;;;;;;;60.75;49.25;;;;;4.10;89.99;100338.38;5049027;28;8871;-77
2021/12/14 01:12:10;;;;;;;;;53.00;46.75;;;;;3.98;91.67;100337.88;5060235;28;8868;-77
2021/12/14 01:14:46;;;;;;;;;63.25;50.00;;;;;4.02;93.09;100337.19;5050316;28;8890;-77
2021/12/14 01:17:28;;;;;;;;;75.25;57.00;;;;;3.72;90.43;100342.03;5066042;28;8886;-76
2021/12/14 01:20:00;;;;;;;;;64.25;48.00;;;;;3.59;92.77;100337.19;5049278;28;8859;-76
2021/12/14 01:22:42;;;;;;;;;59.75;49.25;;;;;3.66;94.21;100347.81;5033469;28;8868;-78
2021/12/14 01:25:18;;;;;;;;;65.50;51.25;;;;;3.81;94.99;100336.38;5016748;28;8897;-77
2021/12/14 01:27:59;;;;;;;;;62.00;51.50;;;;;3.85;95.59;100346.84;5046638;28;8882;-77
2021/12/14 01:30:35;;;;;;;;;67.25;53.75;;;;;3.93;95.52;100354.00;5019971;28;8881;-77
2021/12/14 01:33:11;;;;;;;;;64.50;53.25;;;;;3.89;93.70;100340.13;5066059;28;8875;-77
2021/12/14 01:35:43;;;;;;;;;71.00;56.50;;;;;3.90;94.46;100341.88;5046204;28;8867;-77
2021/12/14 01:38:31;;;;;;;;;67.00;51.75;;;;;3.89;93.47;100332.38;5013066;28;8948;-77
2021/12/14 01:41:05;;;;;;;;;68.00;52.75;;;;;3.72;92.40;100331.72;5045545;28;8940;-77
2021/12/14 01:43:45;;;;;;;;;65.75;52.00;;;;;3.82;94.88;100332.94;5029882;28;8842;-78
2021/12/14 01:46:23;;;;;;;;;73.00;57.67;;;;;2.81;92.46;100340.84;5046085;28;8923;-76
2021/12/14 01:48:57;;;;;;;;;48.75;46.25;;;;;2.87;94.07;100333.41;5014696;28;8893;-77
2021/12/14 01:51:58;;;;;;;;;63.25;49.50;;;;;2.97;95.76;100333.75;5027615;28;8854;-77
2021/12/14 01:54:35;;;;;;;;;65.75;53.50;;;;;3.06;95.70;100324.75;5029269;28;8858;-76
2021/12/14 01:57:07;;;;;;;;;62.00;53.50;;;;;3.22;96.64;100325.41;5031065;28;8854;-77
2021/12/14 01:59:42;;;;;;;;;65.50;50.50;;;;;3.31;96.30;100330.94;5045979;28;8997;-77
2021/12/14 02:02:23;;;;;;;;;57.00;47.75;;;;;3.39;96.08;100329.53;5015977;28;8858;-76
2021/12/14 02:04:54;;;;;;;;;66.00;52.50;;;;;3.32;95.24;100332.69;5028370;28;8985;-77
2021/12/14 02:07:26;;;;;;;;;72.50;56.75;;;;;3.40;96.49;100335.56;5062349;28;8865;-77
2021/12/14 02:09:57;;;;;;;;;65.50;54.25;;;;;3.35;95.05;100332.81;5062462;28;8877;-77
2021/12/14 02:12:29;;;;;;;;;68.00;52.50;;;;;3.27;94.67;100324.78;5039043;28;8890;-77
2021/12/14 02:15:09;;;;;;;;;63.75;52.50;;;;;3.21;94.54;100327.06;5024790;28;8994;-78
2021/12/14 02:17:41;;;;;;;;;69.25;55.25;;;;;2.94;92.79;100334.53;5024884;28;8876;-77
2021/12/14 02:20:13;;;;;;;;;69.50;53.00;;;;;2.66;95.41;100341.03;5027057;28;8844;-76
2021/12/14 02:22:43;;;;;;;;;68.25;54.00;;;;;2.72;95.51;100336.19;5047028;28;8853;-77
2021/12/14 02:25:14;;;;;;;;;66.75;53.00;;;;;2.71;95.30;100330.97;5079782;28;8849;-76
2021/12/14 02:27:45;;;;;;;;;64.50;49.00;;;;;2.71;96.04;100330.97;5036089;28;8861;-77
2021/12/14 02:30:20;;;;;;;;;56.00;48.75;;;;;2.73;96.61;100334.50;5027082;28;8982;-77
2021/12/14 02:32:50;;;;;;;;;71.25;56.50;;;;;2.68;96.20;100336.84;5017833;28;8837;-77
2021/12/14 02:35:21;;;;;;;;;75.25;54.50;;;;;2.33;95.93;100348.16;5046607;28;9600;-77
2021/12/14 02:37:56;;;;;;;;;68.00;55.00;;;;;2.04;97.71;100342.56;5047332;28;8961;-78
2021/12/14 02:40:53;;;;;;;;;61.25;51.75;;;;;2.01;97.38;100347.56;5063928;28;8864;-76
2021/12/14 02:43:25;;;;;;;;;59.75;50.00;;;;;2.11;97.66;100336.88;5029754;28;8853;-76
2021/12/14 02:46:02;;;;;;;;;66.75;54.00;;;;;1.84;98.79;100344.19;5063624;28;8900;-76
2021/12/14 02:48:31;;;;;;;;;65.50;51.25;;;;;1.93;100.00;100333.47;4996336;28;8885;-76
2021/12/14 02:51:07;;;;;;;;;72.25;56.00;;;;;2.27;100.00;100332.41;5030646;28;8908;-77
2021/12/14 02:53:39;;;;;;;;;63.00;52.50;;;;;2.52;100.00;100334.44;5049178;28;8846;-76
2021/12/14 02:56:13;;;;;;;;;22.50;14.75;;;;;2.41;99.43;100346.81;5046667;28;9574;-78
2021/12/14 02:58:44;;;;;;;;;62.75;49.00;;;;;2.49;99.34;100347.16;5036054;28;8915;-77
2021/12/14 03:01:15;;;;;;;;;63.25;51.75;;;;;2.63;100.00;100348.66;4997467;28;8858;-77
2021/12/14 03:03:45;;;;;;;;;61.75;49.50;;;;;2.71;98.96;100349.00;5009525;28;8866;-78
2021/12/14 03:06:20;;;;;;;;;68.00;51.50;;;;;2.42;96.92;100343.44;4992948;28;8892;-78
2021/12/14 03:09:07;;;;;;;;;65.75;54.50;;;;;2.67;99.27;100327.38;5025871;28;8862;-77
2021/12/14 03:11:38;;;;;;;;;58.25;49.25;;;;;2.55;97.93;100326.81;5009252;28;8980;-77
2021/12/14 03:14:07;;;;;;;;;59.75;47.50;;;;;2.64;99.96;100332.38;5025552;28;8858;-78
2021/12/14 03:16:39;;;;;;;;;69.50;54.25;;;;;2.77;100.00;100332.94;5008704;28;8858;-77
2021/12/14 03:19:08;;;;;;;;;66.75;52.25;;;;;2.86;100.00;100338.47;5014155;28;8915;-77
2021/12/14 03:21:45;;;;;;;;;71.25;57.00;;;;;2.65;98.91;100334.16;5003644;28;8879;-78
2021/12/14 03:24:18;;;;;;;;;63.50;51.25;;;;;2.88;100.00;100317.13;5028739;28;9689;-77
2021/12/14 03:26:51;;;;;;;;;66.50;51.75;;;;;2.50;96.71;100333.47;5045127;28;8860;-77
2021/12/14 03:29:23;;;;;;;;;68.75;53.75;;;;;2.72;99.46;100320.75;5012326;28;8852;-78
2021/12/14 03:31:56;;;;;;;;;63.25;51.25;;;;;2.69;98.28;100324.88;5045337;28;8860;-77
2021/12/14 03:34:35;;;;;;;;;62.50;50.25;;;;;2.79;99.45;100316.72;5038621;28;8946;-77
2021/12/14 03:37:08;;;;;;;;;67.50;51.25;;;;;2.97;100.00;100316.63;5049715;28;8881;-77
2021/12/14 03:39:43;;;;;;;;;71.00;55.75;;;;;3.06;100.00;100314.47;5049405;28;8957;-78
2021/12/14 03:42:14;;;;;;;;;64.75;51.25;;;;;3.04;98.70;100303.16;5066295;28;8927;-76
2021/12/14 03:44:48;;;;;;;;;67.25;53.75;;;;;3.15;100.00;100315.66;5049698;28;8853;-77
2021/12/14 03:47:22;;;;;;;;;73.25;55.25;;;;;3.14;99.04;100312.19;5031300;28;8858;-77
2021/12/14 03:49:55;;;;;;;;;66.25;54.25;;;;;3.10;98.71;100299.97;5014940;28;9018;-77
2021/12/14 03:52:28;;;;;;;;;52.00;45.00;;;;;3.18;99.59;100308.94;5015046;28;8858;-78
2021/12/14 03:55:05;;;;;;;;;70.00;55.00;;;;;3.04;96.46;100305.75;5031790;28;8889;-78
2021/12/14 03:57:34;;;;;;;;;49.25;42.75;;;;;2.98;96.99;100304.63;5014945;28;8911;-77
2021/12/14 04:00:07;;;;;;;;;65.25;48.25;;;;;2.69;96.11;100317.16;5047728;28;8866;-77
2021/12/14 04:02:37;;;;;;;;;59.75;45.50;;;;;2.58;96.58;100329.53;5027416;28;8909;-78
2021/12/14 04:05:11;;;;;;;;;52.00;44.75;;;;;2.84;99.53;100324.66;5040284;28;10153;-77
2021/12/14 04:07:44;;;;;;;;;61.00;49.25;;;;;2.82;99.91;100334.03;5000268;28;8955;-77
2021/12/14 04:10:22;;;;;;;;;67.75;51.50;;;;;2.60;97.84;100340.78;5031180;28;8866;-77
2021/12/14 04:12:51;;;;;;;;;55.75;48.25;;;;;2.16;97.80;100352.53;4997801;28;8955;-76
2021/12/14 04:15:21;;;;;;;;;59.75;48.25;;;;;1.86;99.01;100350.28;5027041;28;8973;-76
2021/12/14 04:17:50;;;;;;;;;65.50;49.25;;;;;1.67;100.00;100356.25;4954019;28;12814;-78
2021/12/14 04:20:25;;;;;;;;;68.75;54.25;;;;;1.62;100.00;100355.13;5045773;28;8858;-77
2021/12/14 04:22:55;;;;;;;;;60.00;52.00;;;;;1.68;100.00;100358.03;5029819;28;8874;-76
2021/12/14 04:25:30;;;;;;;;;69.75;53.75;;;;;1.50;100.00;100355.44;4997570;28;9051;-76
2021/12/14 04:28:00;;;;;;;;;61.50;49.00;;;;;1.18;100.00;100356.41;5013384;28;8834;-77
2021/12/14 04:30:29;;;;;;;;;52.75;47.50;;;;;1.15;100.00;100351.09;5048063;28;8914;-77
2021/12/14 04:33:05;;;;;;;;;69.25;54.25;;;;;0.91;100.00;100366.19;5029135;28;8838;-77
2021/12/14 04:35:37;;;;;;;;;63.50;52.00;;;;;0.94;100.00;100367.19;5045650;28;8857;-79
2021/12/14 04:38:14;;;;;;;;;69.25;53.25;;;;;1.00;100.00;100360.59;5029360;28;8838;-77
2021/12/14 04:52:11;;;;;;;;;68.75;54.25;;;;;1.84;100.00;100367.34;4934653;28;8852;-77
2021/12/14 04:54:43;;;;;;;;;169.50;144.50;;;;;2.07;100.00;100360.69;4966578;28;8875;-76
2021/12/14 04:57:22;;;;;;;;;67.25;53.00;;;;;2.06;100.00;100360.63;4969266;28;11640;-78
2021/12/14 04:59:55;;;;;;;;;72.25;57.75;;;;;2.21;100.00;100363.94;4966577;28;8878;-77
2021/12/14 05:02:27;;;;;;;;;73.25;56.50;;;;;2.35;100.00;100369.69;4950757;28;8909;-76
2021/12/14 05:05:18;;;;;;;;;75.25;61.00;;;;;2.53;100.00;100370.53;4965567;28;8838;-76
2021/12/14 05:09:19;;;;;;;;;81.75;64.25;;;;;2.58;100.00;100368.16;4950711;28;8862;-78
2021/12/14 05:10:52;;;;;;;;;68.50;57.50;;;;;2.57;100.00;100376.72;4951846;28;8885;-76
2021/12/14 05:13:25;;;;;;;;;72.50;60.25;;;;;2.34;99.74;100366.25;4935838;28;8882;-77
2021/12/14 05:15:55;;;;;;;;;80.25;60.75;;;;;2.54;100.00;100371.41;4919806;28;8874;-77
2021/12/14 05:18:24;;;;;;;;;68.00;55.50;;;;;2.60;100.00;100366.53;4968461;28;8940;-77
2021/12/14 05:20:54;;;;;;;;;70.50;58.25;;;;;2.69;100.00;100360.91;4990026;28;8866;-77
2021/12/14 05:23:28;;;;;;;;;170.00;151.75;;;;;2.75;100.00;100360.31;4990210;28;8944;-77
2021/12/14 05:25:58;;;;;;;;;68.50;55.00;;;;;2.68;100.00;100360.00;5006265;28;11620;-77
2021/12/14 05:28:29;;;;;;;;;273.33;234.67;;;;;2.88;100.00;100363.47;5006358;28;8850;-79
2021/12/14 05:31:00;;;;;;;;;83.67;67.00;;;;;3.01;100.00;100362.31;4989726;28;8962;-78
2021/12/14 05:33:42;;;;;;;;;81.75;62.50;;;;;2.56;97.71;100368.91;4990259;28;9054;-78
2021/12/14 05:36:33;;;;;;;;;83.25;64.75;;;;;2.53;100.00;100370.53;5015880;28;8859;-77
2021/12/14 05:39:17;;;;;;;;;75.25;57.50;;;;;2.28;98.74;100368.53;5046888;28;8868;-77
2021/12/14 05:45:09;;;;;;;;;80.75;62.25;;;;;2.23;100.00;100363.97;5019263;28;8864;-76
2021/12/14 05:47:45;;;;;;;;;67.75;56.00;;;;;2.19;100.00;100370.66;5009035;28;8859;-77
2021/12/14 05:50:29;;;;;;;;;74.25;56.75;;;;;2.08;99.98;100389.88;4992930;28;8913;-77
2021/12/14 05:53:00;;;;;;;;;74.50;56.00;;;;;2.02;100.00;100389.59;5040911;28;8842;-77
2021/12/14 05:55:32;;;;;;;;;59.75;49.00;;;;;1.51;100.00;100385.47;5025417;28;8864;-76
2021/12/14 05:58:04;;;;;;;;;61.75;48.00;;;;;1.73;100.00;100397.66;5009160;28;8859;-77
2021/12/14 06:00:43;;;;;;;;;77.75;56.25;;;;;1.55;100.00;100396.75;5007476;28;9013;-78
2021/12/14 06:03:19;;;;;;;;;53.50;45.00;;;;;1.78;100.00;100387.63;5008470;28;8867;-77
2021/12/14 06:05:48;;;;;;;;;51.50;45.50;;;;;1.93;100.00;100390.06;5041596;28;8941;-77
2021/12/14 06:08:23;;;;;;;;;65.50;51.50;;;;;2.17;100.00;100382.59;5008782;28;8883;-77
2021/12/14 06:10:56;;;;;;;;;63.00;49.00;;;;;1.92;100.00;100390.84;5025013;28;8925;-76
2021/12/14 06:13:36;;;;;;;;;60.75;47.00;;;;;1.76;100.00;100386.66;5041292;28;9621;-78
2021/12/14 06:16:08;;;;;;;;;60.75;50.50;;;;;1.76;100.00;100389.25;5008652;28;8923;-77
2021/12/14 06:18:37;;;;;;;;;67.00;48.75;;;;;1.98;100.00;100379.97;5045763;28;8864;-77
2021/12/14 06:21:30;;;;;;;;;51.75;46.00;;;;;2.15;100.00;100389.34;4993606;28;8936;-76
2021/12/14 06:24:04;;;;;;;;;58.25;47.50;;;;;2.06;100.00;100389.81;5008577;28;8868;-77
2021/12/14 06:26:44;;;;;;;;;61.50;49.75;;;;;2.09;100.00;100404.50;4977792;28;8961;-79
2021/12/14 06:29:17;;;;;;;;;53.00;46.00;;;;;2.24;100.00;100400.06;5007609;28;8860;-77
2021/12/14 06:31:47;;;;;;;;;65.50;51.50;;;;;1.67;99.95;100404.22;5024255;28;8844;-76
2021/12/14 06:34:22;;;;;;;;;65.50;52.25;;;;;1.73;100.00;100409.66;5007762;28;8864;-77
2021/12/14 06:40:22;;;;;;;;;61.75;46.50;;;;;2.03;100.00;100409.38;4957966;28;8968;-78
2021/12/14 06:42:54;;;;;;;;;58.75;45.25;;;;;2.00;100.00;100411.78;4949858;28;8880;-77
2021/12/14 06:45:27;;;;;;;;;74.75;57.50;;;;;2.12;100.00;100415.81;4976272;28;9960;-79
2021/12/14 06:48:03;;;;;;;;;52.00;44.50;;;;;1.90;100.00;100421.63;4920087;29;8897;-78
2021/12/14 06:50:38;;;;;;;;;60.75;49.00;;;;;1.99;100.00;100428.91;4949804;28;8878;-76
2021/12/14 06:53:18;;;;;;;;;60.00;48.25;;;;;1.91;100.00;100423.41;4993956;28;9658;-77
2021/12/14 06:56:07;;;;;;;;;62.75;47.00;;;;;2.08;100.00;100431.94;4982492;28;8874;-78
2021/12/14 06:59:13;;;;;;;;;53.00;45.00;;;;;2.16;100.00;100429.72;4968795;28;8958;-77
2021/12/14 07:02:00;;;;;;;;;42.50;40.75;;;;;2.26;100.00;100424.19;4952754;28;8972;-77
2021/12/14 07:04:37;;;;;;;;;48.75;42.50;;;;;2.13;100.00;100429.56;5001217;28;9734;-77
2021/12/14 07:07:09;;;;;;;;;41.25;39.00;;;;;2.13;100.00;100437.28;4952823;28;9005;-78
2021/12/14 07:09:42;;;;;;;;;30.25;28.25;;;;;2.33;100.00;100439.13;4952971;28;8854;-78
2021/12/14 07:12:16;;;;;;;;;59.25;47.00;;;;;1.97;99.76;100434.78;4952067;28;8881;-79
2021/12/14 07:14:59;;;;;;;;;42.00;39.00;;;;;1.85;100.00;100435.06;4968996;28;8869;-78
2021/12/14 07:17:32;;;;;;;;;54.50;44.25;;;;;1.88;100.00;100437.81;5016963;28;8875;-78
2021/12/14 07:20:06;;;;;;;;;42.75;38.25;;;;;1.76;100.00;100432.94;5055995;28;8917;-76
2021/12/14 07:22:42;;;;;;;;;41.00;32.25;;;;;1.71;100.00;100429.25;5077364;28;9625;-77
2021/12/14 07:25:13;;;;;;;;;45.80;33.00;;;;;1.86;100.00;100439.41;5053372;28;8836;-80
2021/12/14 07:27:42;;;;;;;;;46.75;40.50;;;;;1.76;100.00;100432.94;5041310;28;8848;-77
2021/12/14 07:30:19;;;;;;;;;44.75;34.25;;;;;1.89;100.00;100432.75;5061734;28;8873;-77
2021/12/14 07:32:53;;;;;;;;;36.50;33.50;;;;;1.64;100.00;100435.78;5061212;28;9666;-80
2021/12/14 07:35:47;;;;;;;;;53.50;45.25;;;;;1.82;100.00;100435.81;5062549;28;8876;-77
2021/12/14 07:38:36;;;;;;;;;65.00;42.50;;;;;1.81;100.00;100436.59;5047870;28;8903;-78
2021/12/14 07:41:09;;;;;;;;;39.75;34.50;;;;;1.86;100.00;100430.00;5026706;28;8852;-79
2021/12/14 07:43:43;;;;;;;;;46.25;41.75;;;;;2.13;100.00;100443.31;5027292;28;8910;-77
2021/12/14 07:46:20;;;;;;;;;45.00;42.25;;;;;2.41;100.00;100434.31;5027444;28;9719;-77
2021/12/14 07:48:52;;;;;;;;;57.25;47.25;;;;;2.41;100.00;100434.31;5027511;28;9601;-78
2021/12/14 07:51:24;;;;;;;;;54.00;43.50;;;;;2.62;100.00;100444.72;5027358;28;8868;-77
2021/12/14 07:53:59;;;;;;;;;52.75;44.75;;;;;2.28;100.00;100443.16;5027147;28;8868;-77
2021/12/14 07:56:33;;;;;;;;;54.00;45.00;;;;;2.24;100.00;100441.25;5026799;28;8876;-78
2021/12/14 07:59:08;;;;;;;;;42.75;39.75;;;;;2.11;100.00;100447.50;5043574;28;8965;-77
2021/12/14 08:01:37;;;;;;;;;52.00;42.25;;;;;1.80;100.00;100447.72;5026987;28;8883;-78
2021/12/14 08:04:10;;;;;;;;;39.50;37.25;;;;;1.68;100.00;100452.25;5011385;28;8856;-78
2021/12/14 08:06:47;;;;;;;;;46.25;41.50;;;;;1.54;100.00;100459.28;4990537;28;8826;-78
2021/12/14 08:09:32;;;;;;;;;46.33;43.67;;;;;1.24;100.00;100453.44;5007505;28;8862;-78
2021/12/14 08:12:02;;;;;;;;;58.25;45.25;;;;;1.38;100.00;100455.06;4990421;28;8842;-78
2021/12/14 08:14:32;;;;;;;;;38.75;32.25;;;;;1.47;100.00;100452.91;4990523;28;8984;-78
2021/12/14 08:17:07;;;;;;;;;51.00;39.50;;;;;1.73;100.00;100463.66;4937196;28;8885;-78
2021/12/14 08:19:40;;;;;;;;;40.50;36.50;;;;;1.78;100.00;100464.75;5004418;28;8868;-78
2021/12/14 08:22:13;;;;;;;;;48.75;42.00;;;;;1.77;100.00;100468.13;5025701;28;8820;-77
2021/12/14 08:24:50;;;;;;;;;67.25;53.75;;;;;1.97;100.00;100473.34;4977009;28;8844;-78
2021/12/14 08:27:21;;;;;;;;;38.50;36.00;;;;;1.91;100.00;100469.69;5010192;28;8839;-77
2021/12/14 08:29:51;;;;;;;;;55.25;43.75;;;;;2.07;100.00;100471.31;4993831;28;8914;-78
2021/12/14 08:32:24;;;;;;;;;52.50;44.75;;;;;2.10;100.00;100473.19;4998836;28;8956;-79
2021/12/14 08:34:56;;;;;;;;;41.25;38.25;;;;;2.14;100.00;100480.22;5026477;28;8990;-79
2021/12/14 08:37:34;;;;;;;;;45.25;42.75;;;;;2.19;100.00;100480.44;5006786;28;8877;-78
2021/12/14 08:40:09;;;;;;;;;51.25;42.75;;;;;2.24;100.00;100474.69;4989831;28;8877;-79
2021/12/14 08:42:46;;;;;;;;;55.25;46.25;;;;;1.86;100.00;100481.44;5003225;28;8857;-77
2021/12/14 08:45:27;;;;;;;;;39.75;35.50;;;;;1.93;100.00;100483.50;5020383;28;8871;-78
2021/12/14 08:48:07;;;;;;;;;45.00;42.00;;;;;1.99;100.00;100472.66;4990061;28;8883;-77
2021/12/14 08:50:42;;;;;;;;;64.25;47.50;;;;;2.05;100.00;100472.94;5003686;28;8910;-74
2021/12/14 08:53:14;;;;;;;;;51.00;44.75;;;;;2.37;100.00;100480.44;4983537;28;8876;-78
2021/12/14 08:55:48;;;;;;;;;52.75;47.75;;;;;2.06;100.00;100485.00;4960934;28;8957;-79
2021/12/14 08:58:17;;;;;;;;;53.00;45.00;;;;;2.24;100.00;100482.41;4969460;28;8863;-79
2021/12/14 09:00:49;;;;;;;;;50.50;42.75;;;;;2.17;100.00;100484.63;4948464;28;8963;-78
2021/12/14 09:03:24;;;;;;;;;63.75;48.50;;;;;2.16;100.00;100478.59;4935225;28;8892;-76
2021/12/14 09:05:53;;;;;;;;;61.25;49.00;;;;;1.86;100.00;100489.16;4966407;28;8884;-79
2021/12/14 09:08:24;;;;;;;;;58.25;48.25;;;;;2.10;100.00;100488.63;4957586;28;8967;-77
2021/12/14 09:10:56;;;;;;;;;50.50;42.75;;;;;1.53;100.00;100488.34;5002717;28;8870;-77
2021/12/14 09:13:27;;;;;;;;;59.75;48.75;;;;;1.37;100.00;100491.81;4992927;28;8865;-78
2021/12/14 09:16:00;;;;;;;;;53.75;48.00;;;;;1.06;100.00;100490.22;5004227;28;8855;-77
2021/12/14 09:18:33;;;;;;;;;66.00;51.25;;;;;0.88;100.00;100486.69;5012503;28;8902;-77
2021/12/14 09:21:10;;;;;;;;;46.00;42.00;;;;;0.89;100.00;100486.78;4989702;28;8886;-77
2021/12/14 09:23:43;;;;;;;;;57.25;45.00;;;;;0.74;100.00;100481.69;4966086;28;8898;-77
2021/12/14 09:26:15;;;;;;;;;69.25;50.75;;;;;0.66;100.00;100475.28;4913105;28;8934;-79
2021/12/14 09:28:44;;;;;;;;;62.00;49.25;;;;;0.63;100.00;100481.91;4966764;28;9699;-77
2021/12/14 09:31:19;;;;;;;;;55.50;48.75;;;;;0.51;100.00;100479.53;4966166;28;8854;-78
2021/12/14 09:33:49;;;;;;;;;67.25;53.50;;;;;0.55;100.00;100482.38;4965810;28;8966;-77
2021/12/14 09:36:18;;;;;;;;;69.75;56.00;;;;;0.58;100.00;100477.38;4966337;28;8886;-78
2021/12/14 09:38:51;;;;;;;;;65.75;53.75;;;;;0.42;100.00;100474.81;4966482;28;8847;-79
2021/12/14 09:41:25;;;;;;;;;66.50;52.00;;;;;0.62;100.00;100469.88;4966500;28;8904;-77
2021/12/14 09:43:55;;;;;;;;;57.50;47.75;;;;;0.60;100.00;100471.47;4950935;28;8871;-77
2021/12/14 09:46:24;;;;;;;;;62.25;51.50;;;;;0.61;100.00;100469.00;4950748;28;8912;-75
2021/12/14 09:48:56;;;;;;;;;59.50;47.75;;;;;1.04;100.00;100467.81;4976294;28;8949;-78
2021/12/14 09:51:28;;;;;;;;;68.25;55.00;;;;;1.47;100.00;100470.03;5025527;28;9612;-78
2021/12/14 09:54:01;;;;;;;;;71.00;56.25;;;;;1.54;100.00;100464.41;5027464;28;8860;-77
2021/12/14 09:56:37;;;;;;;;;68.00;56.00;;;;;1.73;100.00;100456.81;4995943;28;8949;-78
2021/12/14 09:59:09;;;;;;;;;69.00;52.25;;;;;2.14;100.00;100463.09;5070461;28;8871;-77
2021/12/14 10:01:44;;;;;;;;;71.00;57.00;;;;;1.74;100.00;100460.28;5028605;28;9007;-78
2021/12/14 10:04:17;;;;;;;;;75.00;57.50;;;;;1.51;100.00;100452.28;5079703;28;8977;-78
2021/12/14 10:06:51;;;;;;;;;67.50;57.00;;;;;1.58;100.00;100453.47;5045647;28;9681;-78
2021/12/14 10:09:27;;;;;;;;;69.75;53.50;;;;;1.55;100.00;100455.88;5046104;28;8876;-78
2021/12/14 10:12:15;;;;;;;;;71.50;60.50;;;;;1.13;100.00;100453.75;5062719;28;8926;-80
2021/12/14 10:14:45;;;;;;;;;66.75;54.75;;;;;1.42;100.00;100451.84;5046523;28;8947;-78
2021/12/14 10:17:16;;;;;;;;;74.00;54.75;;;;;1.52;100.00;100448.91;5042327;28;8862;-78
2021/12/14 10:19:48;;;;;;;;;77.00;63.00;;;;;1.84;100.00;100447.06;5061437;28;8861;-79
2021/12/14 10:22:23;;;;;;;;;75.25;58.00;;;;;2.10;100.00;100450.03;5061928;28;8876;-79
2021/12/14 10:24:55;;;;;;;;;65.25;51.75;;;;;2.25;100.00;100442.13;5011422;28;8960;-78
2021/12/14 10:27:27;;;;;;;;;76.25;58.75;;;;;1.77;98.63;100438.97;5043992;28;8965;-78
2021/12/14 10:29:59;;;;;;;;;82.50;64.25;;;;;1.44;100.00;100437.38;5044433;28;9104;-78
2021/12/14 10:32:31;;;;;;;;;69.75;54.00;;;;;1.31;100.00;100435.00;5037571;28;8869;-77
2021/12/14 10:35:06;;;;;;;;;60.50;51.75;;;;;1.17;100.00;100435.16;5045575;28;8841;-78
2021/12/14 10:37:58;;;;;;;;;0.00;0.00;;;;;1.16;100.00;100433.38;5047211;28;8873;-78
2021/12/14 10:43:21;;;;;;;;;67.75;55.75;;;;;2.00;100.00;100427.22;5055590;28;8860;-78
2021/12/14 10:45:54;;;;;;;;;77.25;58.50;;;;;2.08;100.00;100428.47;5055704;28;8878;-77
2021/12/14 10:48:27;;;;;;;;;67.25;51.50;;;;;2.31;100.00;100421.84;5033131;28;8868;-76
2021/12/14 10:50:57;;;;;;;;;66.50;56.00;;;;;2.54;100.00;100412.59;5030847;28;8934;-78
2021/12/14 10:53:26;;;;;;;;;70.00;57.00;;;;;2.61;100.00;100409.50;5021378;28;8854;-78
2021/12/14 10:56:01;;;;;;;;;72.50;58.25;;;;;2.57;100.00;100406.72;5005725;28;8916;-77
2021/12/14 10:58:30;;;;;;;;;71.25;55.00;;;;;2.77;100.00;100405.03;5040709;28;8988;-79
2021/12/14 11:01:02;;;;;;;;;75.50;61.00;;;;;2.79;100.00;100403.41;5043626;28;8977;-78
2021/12/14 11:03:36;;;;;;;;;78.75;57.50;;;;;2.91;100.00;100401.34;5010395;28;8986;-77
2021/12/14 11:06:11;;;;;;;;;69.25;56.00;;;;;3.01;100.00;100400.09;5026802;28;8981;-79
2021/12/14 11:08:48;;;;;;;;;76.25;63.25;;;;;3.21;100.00;100398.34;5027237;28;9748;-79
2021/12/14 11:11:33;;;;;;;;;76.50;60.50;;;;;3.20;100.00;100394.03;4983336;28;8856;-80
2021/12/14 11:14:07;;;;;;;;;60.00;53.25;;;;;3.42;100.00;100399.28;5048173;28;8890;-77
2021/12/14 11:19:38;;;;;;;;;80.00;60.25;;;;;3.41;99.97;100392.34;5031265;28;8858;-77
2021/12/14 11:22:13;;;;;;;;;75.50;57.25;;;;;3.43;98.88;100390.72;5031187;28;8866;-79
2021/12/14 11:24:44;;;;;;;;;78.00;59.25;;;;;3.30;95.20;100396.19;5019263;28;8872;-78
2021/12/14 11:27:20;;;;;;;;;76.25;59.75;;;;;3.37;97.58;100394.75;5065379;28;8863;-77
2021/12/14 11:29:55;;;;;;;;;68.00;57.50;;;;;3.39;95.79;100386.25;5018691;28;8895;-78
2021/12/14 11:32:25;;;;;;;;;81.00;61.25;;;;;2.82;98.37;100385.53;5046372;28;8862;-77
2021/12/14 11:34:53;;;;;;;;;68.50;53.00;;;;;3.25;100.00;100390.84;5053451;28;8944;-77
2021/12/14 11:37:33;;;;;;;;;75.00;59.75;;;;;3.53;100.00;100386.81;5063414;28;8866;-78
2021/12/14 11:40:03;;;;;;;;;75.00;58.00;;;;;3.66;100.00;100383.94;5043180;28;8851;-80
2021/12/14 11:42:33;;;;;;;;;70.25;55.75;;;;;3.71;98.59;100390.16;5025160;28;9043;-79
2021/12/14 11:45:08;;;;;;;;;73.25;57.00;;;;;3.93;100.00;100401.34;5025452;28;8932;-77
2021/12/14 11:47:46;;;;;;;;;77.75;59.50;;;;;4.22;100.00;100394.75;5008503;28;9014;-77
2021/12/14 11:50:23;;;;;;;;;65.00;54.25;;;;;4.49;100.00;100389.75;5007556;28;8833;-78
2021/12/14 11:52:57;;;;;;;;;72.50;57.75;;;;;4.28;96.94;100381.19;5005221;28;8904;-78
2021/12/14 11:55:36;;;;;;;;;68.50;57.00;;;;;4.21;89.65;100384.34;5008191;28;8885;-74
2021/12/14 11:58:19;;;;;;;;;72.50;59.00;;;;;3.03;90.73;100389.03;5010305;28;9720;-78
2021/12/14 12:00:52;;;;;;;;;71.25;57.50;;;;;2.84;95.93;100391.63;4992766;28;8894;-77
2021/12/14 12:03:33;;;;;;;;;77.75;61.75;;;;;3.13;97.83;100392.88;4988807;28;8866;-78
2021/12/14 12:06:09;;;;;;;;;67.00;52.50;;;;;3.00;94.17;100383.72;5002030;28;8919;-77
2021/12/14 12:11:36;;;;;;;;;61.75;52.00;;;;;2.22;93.24;100381.13;4993168;28;8862;-78
2021/12/14 12:14:23;;;;;;;;;67.25;54.25;;;;;2.23;94.16;100387.13;5010939;28;8860;-77
2021/12/14 12:16:54;;;;;;;;;65.75;52.50;;;;;2.44;97.20;100379.50;5030326;28;8840;-77
2021/12/14 12:19:26;;;;;;;;;68.75;55.50;;;;;2.36;93.96;100381.75;5041860;28;8861;-77